Clifton, North Dakota
Current Conditions -  °F | °C
As of 2:35 AM on Saturday 20 Dec 2014 (Local Time) from K5H4 Reporting Station
Moderate Fog Moderate Fog  
Wind Chill: 25°   Ceiling: 100
Heat Index: 25°   Visibility: 0.5mi
Dew Point: 25°   Wind: 0mph
Humidity: 100%   Direction: NA
Pressure: 29.95"   Gusts: NA
Location:  47.7181°N, 100.121°W
Report Text: K5H4 200835Z AUTO 00000KT 1/2SM FZFG OVC001 M04/M04 A2995 RMK AO2
Loading
Personal Weather Stations






























Interactive Weather Map New forecast layout! Learn more

10-Day Weather Forecast

Advertisements
Track Severe Weather on mobile